Time;durP1;ratioP1;P1;durP2;ratioP2;P2;SDS_P1;SDS_P2;PMS_P1;PMS_P2;Temp;Humidity;BMP_temperature;BMP_pressure;BME280_temperature;BME280_humidity;BME280_pressure;Samples;Min_cycle;Max_cycle;Signal;HPM_P1;HPM_P2
2023/09/07 00:00:48;;;;;;;4.93;3.13;;;22.50;73.60;;;;;;10366313;28;20030;-56
2023/09/07 00:05:48;;;;;;;4.15;3.28;;;22.60;73.60;;;;;;10365685;28;20041;-57
2023/09/07 00:10:49;;;;;;;3.47;3.08;;;22.60;73.60;;;;;;10363437;28;20041;-57
2023/09/07 00:15:50;;;;;;;3.58;3.03;;;22.50;73.50;;;;;;10378702;28;20401;-57
2023/09/07 00:20:50;;;;;;;5.32;3.20;;;22.50;73.50;;;;;;10406261;28;20029;-56
2023/09/07 00:25:51;;;;;;;3.95;3.22;;;22.50;73.40;;;;;;10368104;28;20481;-57
2023/09/07 00:30:52;;;;;;;3.50;2.70;;;22.50;73.40;;;;;;10383216;28;20062;-56
2023/09/07 00:35:53;;;;;;;5.00;3.47;;;22.50;73.40;;;;;;10365093;28;20540;-56
2023/09/07 00:40:53;;;;;;;4.95;3.30;;;22.50;73.50;;;;;;10365591;28;20045;-56
2023/09/07 00:45:54;;;;;;;4.50;3.40;;;22.50;73.40;;;;;;10364766;28;20042;-57
2023/09/07 00:50:55;;;;;;;4.00;2.75;;;22.50;73.40;;;;;;10364902;28;20464;-55
2023/09/07 00:55:57;;;;;;;3.92;3.45;;;22.50;73.30;;;;;;10364579;28;20093;-57
2023/09/07 01:00:59;;;;;;;3.70;3.10;;;22.50;73.40;;;;;;10387748;28;20373;-56
2023/09/07 01:06:35;;;;;;;3.17;2.85;;;22.50;73.30;;;;;;10405666;28;20373;-56
2023/09/07 01:11:39;;;;;;;4.40;3.35;;;22.50;73.30;;;;;;10406149;28;20319;-56
2023/09/07 01:16:41;;;;;;;4.05;3.03;;;22.50;73.20;;;;;;10404558;28;20095;-55
2023/09/07 01:21:42;;;;;;;4.00;3.38;;;22.50;73.30;;;;;;10403743;28;20044;-56
2023/09/07 01:26:49;;;;;;;3.95;3.25;;;22.50;73.40;;;;;;10371825;28;20045;-56
2023/09/07 01:31:49;;;;;;;3.97;3.40;;;22.50;73.30;;;;;;10377535;28;20571;-56
2023/09/07 01:36:50;;;;;;;3.97;3.30;;;22.50;73.20;;;;;;10371332;28;20037;-57
2023/09/07 01:41:51;;;;;;;4.72;3.03;;;22.50;73.20;;;;;;10371382;28;20026;-57
2023/09/07 01:46:52;;;;;;;3.58;2.92;;;22.40;73.20;;;;;;10370998;28;20037;-55
2023/09/07 01:51:53;;;;;;;3.00;2.50;;;22.40;73.10;;;;;;10371322;28;20117;-55
2023/09/07 01:56:54;;;;;;;3.38;2.92;;;22.40;73.10;;;;;;10371432;28;20355;-57
2023/09/07 02:01:54;;;;;;;4.72;3.20;;;22.40;73.10;;;;;;10370746;28;20022;-57
2023/09/07 02:06:55;;;;;;;4.20;3.20;;;22.40;73.00;;;;;;10370386;28;20485;-57
2023/09/07 02:11:56;;;;;;;3.63;2.70;;;22.40;73.10;;;;;;10370156;28;20037;-57
2023/09/07 02:16:56;;;;;;;3.53;2.95;;;22.40;73.00;;;;;;10392714;28;20401;-56
2023/09/07 02:21:57;;;;;;;3.67;2.97;;;22.40;73.00;;;;;;10405558;28;20037;-56
2023/09/07 02:26:58;;;;;;;3.65;3.10;;;22.40;72.90;;;;;;10369812;28;20050;-57
2023/09/07 02:31:59;;;;;;;3.30;2.75;;;22.40;73.00;;;;;;10388115;28;20512;-56
2023/09/07 02:36:59;;;;;;;3.92;2.53;;;22.40;73.00;;;;;;10369321;28;20033;-56
2023/09/07 02:42:00;;;;;;;3.05;2.75;;;22.40;72.90;;;;;;10369824;28;20473;-57
2023/09/07 02:47:01;;;;;;;3.47;2.70;;;22.40;72.80;;;;;;10368835;28;20048;-57
2023/09/07 02:52:02;;;;;;;3.45;2.92;;;22.40;72.80;;;;;;10369328;28;20065;-57
2023/09/07 02:57:03;;;;;;;3.13;2.80;;;22.30;72.80;;;;;;10368938;28;20120;-56
2023/09/07 03:02:04;;;;;;;4.05;3.13;;;22.30;72.80;;;;;;10368526;28;20113;-57
2023/09/07 03:07:05;;;;;;;3.17;2.60;;;22.30;72.70;;;;;;10368199;28;20481;-55
2023/09/07 03:12:06;;;;;;;3.13;2.75;;;22.30;72.60;;;;;;10367985;28;20029;-56
2023/09/07 03:17:07;;;;;;;3.75;2.83;;;22.30;72.70;;;;;;10391529;28;20053;-57
2023/09/07 03:22:08;;;;;;;3.40;2.60;;;22.30;72.60;;;;;;10401547;28;20056;-56
2023/09/07 03:27:10;;;;;;;3.38;2.70;;;22.30;72.60;;;;;;10367819;28;20669;-57
2023/09/07 03:32:11;;;;;;;3.67;3.08;;;22.30;72.60;;;;;;10385814;28;20107;-57
2023/09/07 03:37:12;;;;;;;4.60;2.75;;;22.20;72.60;;;;;;10388408;28;20055;-57
2023/09/07 03:42:13;;;;;;;2.55;2.28;;;22.30;72.60;;;;;;10383486;28;20037;-57
2023/09/07 03:47:15;;;;;;;3.20;2.70;;;22.30;72.60;;;;;;10382772;28;20394;-58
2023/09/07 03:52:15;;;;;;;5.18;3.38;;;22.30;72.60;;;;;;10382166;28;20113;-58
2023/09/07 03:57:17;;;;;;;3.88;2.80;;;22.30;72.60;;;;;;10381622;28;20029;-58
2023/09/07 04:02:17;;;;;;;3.40;2.60;;;22.30;72.50;;;;;;10384351;28;20040;-57
2023/09/07 04:07:19;;;;;;;3.25;2.42;;;22.40;72.50;;;;;;10377685;28;20037;-56
2023/09/07 04:12:19;;;;;;;3.75;3.05;;;22.30;72.60;;;;;;10387115;28;20033;-58
2023/09/07 04:17:20;;;;;;;3.70;2.70;;;22.30;72.50;;;;;;10408340;28;20037;-57
2023/09/07 04:22:21;;;;;;;4.32;2.60;;;22.30;72.50;;;;;;10398176;28;20030;-57
2023/09/07 04:27:21;;;;;;;3.47;3.05;;;22.30;72.60;;;;;;10382223;28;20567;-57
2023/09/07 04:32:22;;;;;;;5.68;3.20;;;22.30;72.60;;;;;;10407271;28;20045;-57
2023/09/07 04:37:23;;;;;;;3.45;2.90;;;22.20;72.60;;;;;;10372941;28;20401;-58
2023/09/07 04:42:24;;;;;;;5.53;3.40;;;22.20;72.40;;;;;;10365056;28;20155;-57
2023/09/07 04:47:25;;;;;;;3.25;2.80;;;22.30;72.30;;;;;;10387797;28;20591;-56
2023/09/07 04:52:25;;;;;;;5.15;3.28;;;22.20;72.00;;;;;;10407015;28;20358;-57
2023/09/07 04:57:26;;;;;;;3.92;3.08;;;22.20;72.20;;;;;;10411179;28;20477;-57
2023/09/07 05:02:27;;;;;;;7.10;2.97;;;22.20;72.20;;;;;;10401678;28;20022;-57
2023/09/07 05:07:28;;;;;;;6.15;2.70;;;22.20;72.20;;;;;;10374157;28;20060;-58
2023/09/07 05:12:28;;;;;;;6.40;3.10;;;22.30;72.20;;;;;;10374822;28;20377;-56
2023/09/07 05:17:29;;;;;;;4.25;2.42;;;22.40;72.30;;;;;;10401248;28;20052;-57
2023/09/07 05:22:30;;;;;;;5.55;3.33;;;22.40;72.10;;;;;;10404624;28;20573;-59
2023/09/07 05:27:31;;;;;;;7.53;3.17;;;22.40;71.80;;;;;;10374171;28;20040;-57
2023/09/07 05:32:32;;;;;;;3.63;2.53;;;22.40;71.60;;;;;;10414057;28;20037;-58
2023/09/07 05:37:33;;;;;;;4.22;2.90;;;22.40;72.30;;;;;;10414001;28;20026;-57
2023/09/07 05:42:34;;;;;;;6.82;3.70;;;22.40;72.00;;;;;;10414329;28;20087;-57
2023/09/07 05:47:35;;;;;;;6.20;3.53;;;22.40;72.30;;;;;;10414370;28;20033;-57
2023/09/07 05:52:36;;;;;;;7.90;2.85;;;22.30;72.30;;;;;;10414299;28;20029;-58
2023/09/07 05:57:36;;;;;;;9.05;3.78;;;22.30;72.30;;;;;;10413614;28;20029;-58
2023/09/07 06:02:38;;;;;;;7.47;3.45;;;22.30;72.30;;;;;;10413616;28;20025;-57
2023/09/07 06:07:39;;;;;;;11.23;4.03;;;22.30;72.50;;;;;;10387650;28;20405;-57
2023/09/07 06:12:40;;;;;;;4.15;3.00;;;22.40;72.40;;;;;;10372150;28;20099;-57
2023/09/07 06:17:41;;;;;;;8.18;2.70;;;22.30;72.20;;;;;;10402937;28;20044;-57
2023/09/07 06:22:44;;;;;;;6.32;3.58;;;22.30;72.30;;;;;;10401317;28;20038;-57
2023/09/07 06:27:45;;;;;;;6.40;3.40;;;22.30;72.30;;;;;;10390327;28;20060;-58
2023/09/07 06:32:48;;;;;;;6.07;3.40;;;22.20;72.50;;;;;;10420240;28;20435;-57
2023/09/07 06:37:49;;;;;;;6.90;3.40;;;22.20;72.20;;;;;;10412174;28;20105;-57
2023/09/07 06:42:49;;;;;;;6.18;3.60;;;22.20;72.40;;;;;;10412931;28;20357;-56
2023/09/07 06:47:51;;;;;;;5.40;3.63;;;22.20;72.60;;;;;;10411563;28;20029;-57
2023/09/07 06:52:51;;;;;;;4.80;3.03;;;22.20;72.70;;;;;;10387765;28;20034;-57
2023/09/07 06:57:54;;;;;;;5.10;3.30;;;22.20;72.70;;;;;;10369941;28;20038;-57
2023/09/07 07:02:54;;;;;;;3.17;2.83;;;22.20;72.70;;;;;;10369980;28;20113;-56
2023/09/07 07:07:55;;;;;;;4.53;3.17;;;22.20;72.70;;;;;;10369939;28;20470;-58
2023/09/07 07:12:56;;;;;;;4.97;3.53;;;22.20;72.70;;;;;;10369842;28;20080;-56
2023/09/07 07:17:57;;;;;;;4.55;3.25;;;22.20;72.60;;;;;;10399760;28;20322;-57
2023/09/07 07:22:57;;;;;;;3.83;3.15;;;22.20;72.60;;;;;;10396395;28;20026;-57
2023/09/07 07:28:05;;;;;;;6.13;3.80;;;22.20;72.60;;;;;;10374142;28;20032;-57
2023/09/07 07:33:07;;;;;;;5.55;2.83;;;22.20;72.60;;;;;;10380541;28;20545;-58
2023/09/07 07:38:07;;;;;;;4.63;3.00;;;22.20;72.60;;;;;;10368395;28;20033;-57
2023/09/07 07:43:10;;;;;;;4.78;3.22;;;22.20;72.60;;;;;;10369642;28;20026;-56
2023/09/07 07:48:10;;;;;;;4.95;4.00;;;22.20;72.40;;;;;;10368648;28;20032;-57
2023/09/07 07:53:11;;;;;;;3.92;3.22;;;22.20;72.20;;;;;;10368543;28;20037;-57
2023/09/07 07:58:12;;;;;;;3.70;2.90;;;22.20;72.40;;;;;;10387034;28;20041;-56
2023/09/07 08:03:13;;;;;;;4.22;3.30;;;22.20;72.20;;;;;;10408624;28;20029;-59
2023/09/07 08:08:14;;;;;;;5.55;3.10;;;22.30;72.30;;;;;;10408645;28;20083;-57
2023/09/07 08:13:14;;;;;;;4.43;3.28;;;22.30;72.30;;;;;;10409289;28;20123;-58
2023/09/07 08:18:15;;;;;;;6.70;3.47;;;22.30;72.20;;;;;;10408089;28;20045;-58
2023/09/07 08:23:16;;;;;;;4.68;3.50;;;22.30;72.30;;;;;;10377725;28;20029;-59
2023/09/07 08:28:18;;;;;;;4.68;4.18;;;22.30;72.20;;;;;;10375951;28;20032;-57
2023/09/07 08:33:22;;;;;;;3.17;2.88;;;22.40;72.30;;;;;;10376057;28;20370;-56
2023/09/07 08:38:27;;;;;;;5.07;3.92;;;22.40;72.20;;;;;;10366931;28;20038;-58
2023/09/07 08:43:29;;;;;;;4.38;3.67;;;22.40;72.10;;;;;;10367020;28;20073;-57
2023/09/07 08:48:30;;;;;;;4.40;3.47;;;22.40;72.10;;;;;;10366510;28;20026;-58
2023/09/07 08:53:33;;;;;;;4.55;3.60;;;22.50;72.20;;;;;;10367285;28;20034;-56
2023/09/07 08:58:34;;;;;;;4.82;3.33;;;22.50;72.10;;;;;;10387720;28;20501;-57
2023/09/07 09:03:36;;;;;;;3.67;2.88;;;22.50;72.00;;;;;;10408156;28;20054;-57
2023/09/07 09:08:52;;;;;;;4.72;3.47;;;22.60;72.10;;;;;;10392931;28;20067;-57
2023/09/07 09:13:53;;;;;;;3.83;3.22;;;22.60;72.00;;;;;;10407641;28;20046;-57
2023/09/07 09:18:59;;;;;;;4.07;3.15;;;22.60;72.00;;;;;;10407269;28;20033;-57
2023/09/07 09:24:00;;;;;;;3.47;3.05;;;22.60;72.00;;;;;;10384216;28;20462;-56
2023/09/07 09:29:01;;;;;;;3.65;3.35;;;22.60;72.00;;;;;;10390684;28;20095;-57
2023/09/07 09:34:02;;;;;;;2.92;2.47;;;22.60;72.10;;;;;;10366835;28;20557;-57
2023/09/07 09:39:04;;;;;;;3.83;2.85;;;22.60;72.00;;;;;;10365379;28;20124;-58
2023/09/07 09:44:06;;;;;;;3.85;3.28;;;22.70;72.10;;;;;;10370378;28;20022;-57
2023/09/07 09:49:11;;;;;;;4.65;3.20;;;22.70;72.00;;;;;;10399323;28;20025;-58
2023/09/07 09:54:13;;;;;;;4.38;3.55;;;22.80;72.00;;;;;;10404765;28;20366;-57
2023/09/07 09:59:15;;;;;;;4.68;3.38;;;22.80;72.00;;;;;;10372784;28;20112;-56
2023/09/07 10:04:17;;;;;;;4.15;3.38;;;22.80;71.90;;;;;;10373174;28;20129;-57
2023/09/07 10:09:19;;;;;;;4.80;3.25;;;22.80;72.00;;;;;;10397560;28;20067;-58
2023/09/07 10:14:20;;;;;;;3.50;2.70;;;22.80;72.00;;;;;;10374101;28;20053;-57
2023/09/07 10:19:23;;;;;;;4.75;3.20;;;22.90;72.00;;;;;;10413157;28;20477;-57
2023/09/07 10:24:35;;;;;;;3.67;2.80;;;22.90;72.00;;;;;;10402548;28;20041;-57
2023/09/07 10:29:55;;;;;;;3.60;3.13;;;22.90;71.90;;;;;;10415708;28;20030;-57
2023/09/07 10:34:55;;;;;;;3.60;3.08;;;23.00;71.90;;;;;;10372467;28;20037;-57
2023/09/07 10:39:57;;;;;;;3.78;2.97;;;23.00;71.90;;;;;;10370551;28;20545;-57
2023/09/07 10:45:15;;;;;;;4.65;3.05;;;23.00;71.90;;;;;;10371991;28;20041;-58
2023/09/07 10:50:15;;;;;;;3.97;3.08;;;23.10;71.80;;;;;;10370354;28;20392;-57
2023/09/07 10:55:16;;;;;;;4.75;3.25;;;23.10;71.90;;;;;;10370671;28;20036;-57
2023/09/07 11:00:17;;;;;;;3.50;2.85;;;23.10;71.80;;;;;;10370794;28;20030;-57
2023/09/07 11:05:18;;;;;;;4.85;3.17;;;23.10;71.80;;;;;;10370370;28;20088;-57
2023/09/07 11:10:20;;;;;;;4.47;3.25;;;23.10;71.70;;;;;;10369884;28;20041;-57
2023/09/07 11:15:21;;;;;;;4.00;3.40;;;23.20;71.80;;;;;;10379585;28;20110;-58
2023/09/07 11:20:24;;;;;;;3.80;2.95;;;23.20;71.80;;;;;;10372043;28;20030;-58
2023/09/07 11:25:25;;;;;;;3.63;2.90;;;23.20;71.60;;;;;;10370449;28;20046;-58
2023/09/07 11:30:25;;;;;;;4.72;3.17;;;23.20;71.70;;;;;;10388116;28;20049;-57
2023/09/07 11:35:26;;;;;;;3.97;2.90;;;23.20;71.70;;;;;;10369114;28;20018;-57
2023/09/07 11:40:27;;;;;;;5.13;3.33;;;23.20;71.60;;;;;;10368386;28;20037;-57
2023/09/07 11:45:28;;;;;;;4.68;3.72;;;23.30;71.60;;;;;;10369087;28;20417;-57
2023/09/07 11:50:32;;;;;;;4.68;3.45;;;23.20;71.60;;;;;;10368145;28;20803;-62
2023/09/07 11:55:33;;;;;;;4.35;3.40;;;23.30;71.70;;;;;;10377152;28;20587;-58
2023/09/07 12:00:34;;;;;;;7.38;3.92;;;23.30;71.50;;;;;;10368854;28;20026;-58
2023/09/07 12:05:36;;;;;;;4.00;3.55;;;23.30;71.50;;;;;;10368042;28;20029;-58
2023/09/07 12:10:37;;;;;;;3.67;3.25;;;23.40;71.40;;;;;;10367706;28;20132;-57
2023/09/07 12:15:38;;;;;;;4.25;3.40;;;23.40;71.30;;;;;;10379732;28;20568;-58
2023/09/07 12:20:39;;;;;;;4.28;3.78;;;23.40;71.30;;;;;;10406793;28;20087;-57
2023/09/07 12:25:40;;;;;;;3.83;3.15;;;23.40;71.20;;;;;;10372468;28;20021;-58
2023/09/07 12:30:44;;;;;;;4.50;3.47;;;23.40;71.20;;;;;;10399523;28;20567;-58
2023/09/07 12:35:45;;;;;;;4.13;3.58;;;23.40;71.20;;;;;;10367584;28;20041;-57
2023/09/07 12:40:45;;;;;;;5.35;3.72;;;23.40;71.10;;;;;;10390076;28;20033;-57
2023/09/07 12:45:46;;;;;;;3.47;3.10;;;23.40;71.20;;;;;;10408586;28;20528;-57
2023/09/07 12:50:47;;;;;;;6.57;4.20;;;23.40;71.30;;;;;;10407651;28;20029;-57
2023/09/07 12:55:48;;;;;;;6.28;3.55;;;23.40;71.20;;;;;;10407952;28;20037;-57
2023/09/07 13:00:51;;;;;;;4.10;3.40;;;23.40;71.30;;;;;;10407406;28;20038;-57
2023/09/07 13:05:51;;;;;;;3.97;3.53;;;23.40;71.40;;;;;;10407038;28;20029;-57
2023/09/07 13:10:52;;;;;;;4.60;3.70;;;23.40;71.40;;;;;;10407784;28;20105;-57
2023/09/07 13:15:53;;;;;;;4.65;3.78;;;23.40;71.40;;;;;;10406438;28;20411;-57
2023/09/07 13:20:59;;;;;;;4.75;4.35;;;23.40;71.40;;;;;;10374842;28;20083;-58
2023/09/07 13:26:00;;;;;;;6.40;4.18;;;23.40;71.40;;;;;;10374220;28;20443;-57
2023/09/07 13:31:01;;;;;;;5.05;4.30;;;23.40;71.40;;;;;;10410984;28;20575;-58
2023/09/07 13:36:02;;;;;;;4.25;3.60;;;23.40;71.40;;;;;;10414589;28;20088;-58
2023/09/07 13:41:03;;;;;;;4.40;3.95;;;23.40;71.40;;;;;;10414578;28;20028;-58
2023/09/07 13:46:04;;;;;;;5.40;3.80;;;23.30;71.40;;;;;;10414606;28;20036;-58
2023/09/07 13:51:06;;;;;;;6.47;4.05;;;23.30;71.40;;;;;;10414490;28;20029;-57
2023/09/07 13:56:06;;;;;;;5.38;3.83;;;23.30;71.40;;;;;;10413816;28;20033;-57
2023/09/07 14:01:07;;;;;;;4.50;3.60;;;23.30;71.40;;;;;;10414145;28;20025;-58
2023/09/07 14:06:08;;;;;;;4.63;3.88;;;23.30;71.40;;;;;;10413770;28;20491;-57
2023/09/07 14:11:09;;;;;;;4.40;3.85;;;23.30;71.40;;;;;;10414055;28;20495;-58
2023/09/07 14:16:10;;;;;;;3.60;3.03;;;23.30;71.40;;;;;;10412607;28;20056;-58
2023/09/07 14:21:12;;;;;;;5.43;4.05;;;23.30;71.30;;;;;;10413567;28;20041;-58
2023/09/07 14:26:13;;;;;;;4.45;3.80;;;23.30;71.30;;;;;;10371948;28;20606;-58
2023/09/07 14:31:14;;;;;;;4.82;4.35;;;23.30;71.40;;;;;;10391336;28;20053;-57
2023/09/07 14:36:16;;;;;;;5.13;3.83;;;23.30;71.30;;;;;;10405332;28;20025;-58
2023/09/07 14:41:19;;;;;;;4.63;4.13;;;23.20;71.30;;;;;;10411427;28;20028;-58
2023/09/07 14:46:22;;;;;;;4.72;3.95;;;23.20;71.30;;;;;;10381094;28;20055;-57
2023/09/07 14:51:23;;;;;;;5.03;4.07;;;23.20;71.30;;;;;;10396971;28;20025;-57
2023/09/07 14:56:26;;;;;;;4.82;3.70;;;23.20;71.40;;;;;;10371334;28;20026;-58
2023/09/07 15:01:27;;;;;;;4.93;4.43;;;23.20;71.30;;;;;;10371380;28;20030;-57
2023/09/07 15:06:27;;;;;;;7.32;4.43;;;23.20;71.30;;;;;;10370540;28;20029;-57
2023/09/07 15:11:28;;;;;;;5.35;4.25;;;23.20;71.30;;;;;;10370091;28;20026;-57
2023/09/07 15:16:30;;;;;;;5.63;4.53;;;23.20;71.30;;;;;;10383630;28;20096;-57
2023/09/07 15:21:31;;;;;;;5.75;4.20;;;23.20;71.30;;;;;;10388239;28;20116;-58
2023/09/07 15:26:45;;;;;;;4.78;4.18;;;23.20;71.30;;;;;;10403038;28;20778;-58
2023/09/07 15:31:45;;;;;;;6.20;4.28;;;23.20;71.40;;;;;;10387966;28;20126;-58
2023/09/07 15:36:47;;;;;;;5.00;4.47;;;23.30;71.50;;;;;;10369703;28;20060;-58
2023/09/07 15:41:47;;;;;;;6.38;4.20;;;23.30;71.40;;;;;;10368575;28;20041;-58
2023/09/07 15:46:51;;;;;;;5.40;4.22;;;23.30;71.30;;;;;;10369117;28;20041;-57
2023/09/07 15:51:51;;;;;;;5.55;4.80;;;23.40;71.80;;;;;;10369048;28;20046;-58
2023/09/07 15:56:52;;;;;;;6.00;5.00;;;23.60;71.20;;;;;;10368538;28;20477;-59
2023/09/07 16:01:53;;;;;;;37.38;22.95;;;23.80;71.20;;;;;;10394235;28;20032;-60
2023/09/07 16:06:54;;;;;;;16.90;12.32;;;23.90;72.40;;;;;;10408582;28;20025;-58
2023/09/07 16:11:54;;;;;;;25.58;10.32;;;24.20;71.30;;;;;;10408528;28;20078;-58
2023/09/07 16:16:55;;;;;;;13.48;9.38;;;24.20;70.70;;;;;;10407561;28;20562;-57
2023/09/07 16:21:56;;;;;;;11.68;8.70;;;23.90;71.10;;;;;;10368374;28;20034;-58
2023/09/07 16:26:57;;;;;;;13.68;9.70;;;23.80;71.40;;;;;;10370373;28;20029;-58
2023/09/07 16:31:58;;;;;;;16.60;8.18;;;23.70;71.50;;;;;;10374088;28;20060;-59
2023/09/07 16:36:59;;;;;;;20.58;9.13;;;23.70;71.60;;;;;;10382185;28;20369;-61
2023/09/07 16:42:00;;;;;;;12.90;7.28;;;23.70;71.70;;;;;;10379026;28;20018;-57
2023/09/07 16:47:01;;;;;;;11.95;7.85;;;23.60;71.80;;;;;;10382576;28;20562;-58
2023/09/07 16:52:02;;;;;;;12.73;8.43;;;23.50;71.70;;;;;;10382225;28;20453;-62
2023/09/07 16:57:04;;;;;;;10.35;7.03;;;23.50;71.90;;;;;;10380411;28;20033;-58
2023/09/07 17:02:04;;;;;;;13.30;7.22;;;23.50;71.80;;;;;;10382155;28;20045;-58
2023/09/07 17:07:05;;;;;;;11.40;7.47;;;23.50;71.50;;;;;;10381988;28;20034;-62
2023/09/07 17:12:06;;;;;;;13.02;7.85;;;23.50;71.90;;;;;;10384658;28;20492;-61
2023/09/07 17:17:08;;;;;;;12.52;7.60;;;23.50;72.10;;;;;;10392181;28;20481;-61
2023/09/07 17:22:08;;;;;;;11.52;6.13;;;23.50;72.10;;;;;;10391892;28;20069;-57
2023/09/07 17:27:09;;;;;;;10.40;6.70;;;23.50;71.80;;;;;;10392336;28;20033;-58
2023/09/07 17:32:10;;;;;;;9.00;7.50;;;23.50;71.80;;;;;;10370980;28;20038;-57
2023/09/07 17:37:11;;;;;;;10.57;7.05;;;23.40;71.60;;;;;;10366078;28;20026;-58
2023/09/07 17:42:11;;;;;;;8.30;6.30;;;23.50;71.70;;;;;;10367376;28;20033;-58
2023/09/07 17:47:12;;;;;;;9.57;6.50;;;23.40;71.80;;;;;;10366770;28;20462;-58
2023/09/07 17:52:13;;;;;;;7.22;6.00;;;23.40;71.80;;;;;;10366551;28;20034;-57
2023/09/07 17:57:14;;;;;;;9.95;6.60;;;23.40;71.80;;;;;;10373390;28;20037;-61
2023/09/07 18:02:27;;;;;;;7.47;5.57;;;23.30;71.90;;;;;;10375099;28;20029;-57
2023/09/07 18:07:29;;;;;;;8.57;5.90;;;23.40;72.00;;;;;;10391162;28;20058;-59
2023/09/07 18:12:30;;;;;;;9.95;6.45;;;23.40;72.20;;;;;;10393720;28;20034;-59
2023/09/07 18:17:31;;;;;;;9.88;6.43;;;23.40;72.10;;;;;;10400115;28;20091;-58
2023/09/07 18:22:32;;;;;;;8.60;5.60;;;23.30;72.30;;;;;;10399764;28;20817;-58
2023/09/07 18:27:33;;;;;;;9.82;6.68;;;23.30;72.50;;;;;;10397446;28;20036;-59
2023/09/07 18:32:33;;;;;;;7.95;5.93;;;23.30;72.50;;;;;;10389690;28;20041;-56
2023/09/07 18:37:35;;;;;;;7.13;6.32;;;23.30;72.50;;;;;;10384317;28;20037;-59
2023/09/07 18:42:36;;;;;;;9.50;7.03;;;23.30;72.60;;;;;;10399778;28;20033;-58
2023/09/07 18:47:37;;;;;;;8.32;6.28;;;23.30;72.50;;;;;;10391173;28;20038;-60
2023/09/07 18:52:37;;;;;;;7.97;6.75;;;23.30;72.80;;;;;;10387022;28;20064;-58
2023/09/07 18:57:38;;;;;;;12.15;7.38;;;23.40;72.90;;;;;;10383842;28;20041;-58
2023/09/07 19:02:39;;;;;;;8.00;6.10;;;23.40;72.90;;;;;;10395965;28;20424;-58
2023/09/07 19:07:40;;;;;;;9.55;6.32;;;23.30;72.80;;;;;;10411840;28;20034;-58
2023/09/07 19:12:41;;;;;;;6.85;5.32;;;23.30;72.80;;;;;;10410991;28;20049;-58
2023/09/07 19:17:42;;;;;;;8.02;5.93;;;23.30;72.80;;;;;;10410816;28;20029;-57
2023/09/07 19:22:43;;;;;;;6.95;5.38;;;23.20;73.10;;;;;;10400135;28;20026;-58
2023/09/07 19:27:44;;;;;;;7.78;6.05;;;23.30;73.30;;;;;;10371932;28;20030;-58
2023/09/07 19:32:44;;;;;;;6.97;6.00;;;23.20;73.20;;;;;;10388773;28;20030;-58
2023/09/07 19:37:45;;;;;;;7.43;6.57;;;23.20;73.20;;;;;;10370093;28;20038;-58
2023/09/07 19:42:46;;;;;;;8.90;6.40;;;23.20;73.30;;;;;;10370007;28;20022;-58
2023/09/07 19:47:46;;;;;;;7.40;5.65;;;23.20;73.30;;;;;;10369643;28;20057;-58
2023/09/07 19:52:47;;;;;;;8.70;6.30;;;23.20;73.30;;;;;;10370173;28;20026;-57
2023/09/07 19:57:48;;;;;;;8.75;7.13;;;23.20;73.40;;;;;;10369417;28;20401;-58
2023/09/07 20:02:49;;;;;;;8.48;6.28;;;23.20;73.40;;;;;;10369540;28;20420;-58
2023/09/07 20:07:50;;;;;;;5.82;5.05;;;23.10;73.30;;;;;;10368838;28;20030;-58
2023/09/07 20:12:53;;;;;;;6.20;5.22;;;23.20;73.30;;;;;;10368939;28;20493;-58
2023/09/07 20:17:54;;;;;;;6.75;5.63;;;23.20;73.40;;;;;;10398792;28;20037;-58
2023/09/07 20:22:55;;;;;;;7.18;5.13;;;23.20;73.40;;;;;;10395752;28;20347;-57
2023/09/07 20:27:56;;;;;;;7.50;5.85;;;23.10;73.40;;;;;;10372827;28;20034;-58
2023/09/07 20:32:58;;;;;;;5.85;5.05;;;23.10;73.30;;;;;;10382445;28;20036;-58
2023/09/07 20:38:00;;;;;;;5.47;4.85;;;23.10;73.30;;;;;;10367651;28;20439;-58
2023/09/07 20:43:03;;;;;;;7.18;6.07;;;23.10;73.30;;;;;;10368668;28;20168;-57
2023/09/07 20:48:04;;;;;;;7.10;5.57;;;23.10;73.30;;;;;;10367587;28;20037;-58
2023/09/07 20:53:05;;;;;;;5.93;5.32;;;23.10;73.30;;;;;;10367746;28;20550;-58
2023/09/07 20:58:06;;;;;;;6.72;5.13;;;23.10;73.30;;;;;;10367714;28;20689;-58
2023/09/07 21:03:07;;;;;;;6.82;5.93;;;23.10;73.20;;;;;;10368083;28;20040;-58
2023/09/07 21:08:07;;;;;;;5.93;5.22;;;23.10;73.20;;;;;;10367447;28;20125;-58
2023/09/07 21:13:08;;;;;;;7.38;5.40;;;23.10;73.30;;;;;;10367603;28;20046;-58
2023/09/07 21:18:09;;;;;;;6.25;5.63;;;23.10;73.30;;;;;;10399502;28;20038;-58
2023/09/07 21:23:10;;;;;;;6.82;6.00;;;23.10;73.30;;;;;;10387930;28;20037;-58
2023/09/07 21:28:11;;;;;;;6.57;5.97;;;23.10;73.30;;;;;;10375818;28;20067;-58
2023/09/07 21:33:12;;;;;;;9.27;5.35;;;23.10;73.30;;;;;;10376629;28;20100;-57
2023/09/07 21:38:13;;;;;;;5.38;4.80;;;23.10;73.30;;;;;;10369118;28;20091;-58
2023/09/07 21:43:13;;;;;;;6.80;6.10;;;23.10;73.20;;;;;;10375005;28;20080;-58
2023/09/07 21:48:15;;;;;;;7.10;6.40;;;23.00;73.20;;;;;;10387860;28;20420;-58
2023/09/07 21:53:16;;;;;;;7.57;5.65;;;23.10;73.20;;;;;;10374578;28;20083;-58
2023/09/07 21:58:17;;;;;;;5.93;5.32;;;23.10;73.20;;;;;;10374016;28;20083;-57
2023/09/07 22:03:17;;;;;;;6.25;5.63;;;23.10;73.20;;;;;;10374298;28;20172;-58
2023/09/07 22:08:18;;;;;;;6.13;5.53;;;23.10;73.20;;;;;;10381513;28;20384;-57
2023/09/07 22:13:19;;;;;;;5.88;5.28;;;23.00;73.10;;;;;;10373748;28;20049;-58
2023/09/07 22:18:20;;;;;;;5.65;5.15;;;23.00;73.10;;;;;;10406871;28;20026;-58
2023/09/07 22:23:21;;;;;;;6.57;5.85;;;23.00;73.10;;;;;;10395804;28;20385;-58
2023/09/07 22:28:21;;;;;;;6.25;5.32;;;23.00;73.10;;;;;;10412069;28;20028;-58
2023/09/07 22:33:22;;;;;;;7.22;5.47;;;23.00;73.10;;;;;;10379959;28;20049;-58
2023/09/07 22:38:23;;;;;;;7.15;5.97;;;23.00;73.10;;;;;;10372327;28;20037;-56
2023/09/07 22:43:24;;;;;;;6.07;5.43;;;23.00;73.00;;;;;;10372233;28;20389;-58
2023/09/07 22:48:25;;;;;;;5.43;4.90;;;23.00;73.00;;;;;;10371933;28;20034;-58
2023/09/07 22:53:25;;;;;;;6.47;5.68;;;23.00;73.00;;;;;;10371137;28;20092;-57
2023/09/07 22:58:26;;;;;;;5.57;5.07;;;23.00;73.00;;;;;;10384945;28;20030;-58
2023/09/07 23:03:27;;;;;;;6.53;5.90;;;23.00;73.00;;;;;;10371432;28;20038;-58
2023/09/07 23:08:31;;;;;;;6.00;5.40;;;23.00;72.90;;;;;;10371462;28;20060;-58
2023/09/07 23:13:34;;;;;;;6.13;5.05;;;23.00;72.90;;;;;;10398271;28;20086;-58
2023/09/07 23:18:35;;;;;;;5.97;5.47;;;23.00;72.90;;;;;;10411928;28;20087;-58
2023/09/07 23:23:36;;;;;;;6.22;5.20;;;23.00;72.90;;;;;;10392244;28;20026;-58
2023/09/07 23:28:39;;;;;;;7.28;5.78;;;23.00;72.90;;;;;;10386465;28;20369;-58
2023/09/07 23:33:40;;;;;;;6.35;5.75;;;23.00;72.90;;;;;;10372375;28;20046;-58
2023/09/07 23:38:41;;;;;;;6.93;5.65;;;23.00;72.90;;;;;;10370647;28;20389;-58
2023/09/07 23:43:42;;;;;;;6.18;5.57;;;22.90;72.70;;;;;;10369803;28;20029;-57
2023/09/07 23:48:42;;;;;;;6.15;5.55;;;23.00;72.80;;;;;;10370073;28;20034;-58
2023/09/07 23:53:43;;;;;;;8.07;5.25;;;23.00;72.70;;;;;;10369610;28;20041;-58
2023/09/07 23:58:44;;;;;;;6.43;5.82;;;23.00;72.70;;;;;;10369336;28;20036;-58
